sensor_id;sensor_type;location;lat;lon;timestamp;pressure;altitude;pressure_sealevel;temperature;humidity
50672;BME280;46021;55.882;37.654;2023-07-28T00:02:03;97950.41;;;19.41;88.11
50672;BME280;46021;55.882;37.654;2023-07-28T00:04:31;97961.66;;;19.43;87.57
50672;BME280;46021;55.882;37.654;2023-07-28T00:06:58;97987.94;;;19.44;88.00
50672;BME280;46021;55.882;37.654;2023-07-28T00:09:25;97992.94;;;19.47;88.34
50672;BME280;46021;55.882;37.654;2023-07-28T00:11:52;97994.44;;;19.50;88.41
50672;BME280;46021;55.882;37.654;2023-07-28T00:14:19;97992.78;;;19.49;87.38
50672;BME280;46021;55.882;37.654;2023-07-28T00:16:46;97998.91;;;19.50;88.18
50672;BME280;46021;55.882;37.654;2023-07-28T00:19:14;97994.75;;;19.47;87.29
50672;BME280;46021;55.882;37.654;2023-07-28T00:21:41;98001.81;;;19.46;87.78
50672;BME280;46021;55.882;37.654;2023-07-28T00:24:08;97994.91;;;19.45;88.08
50672;BME280;46021;55.882;37.654;2023-07-28T00:26:35;98006.44;;;19.44;87.41
50672;BME280;46021;55.882;37.654;2023-07-28T00:29:02;98020.47;;;19.45;87.86
50672;BME280;46021;55.882;37.654;2023-07-28T00:31:32;98023.81;;;19.47;88.38
50672;BME280;46021;55.882;37.654;2023-07-28T00:33:59;98016.56;;;19.49;88.07
50672;BME280;46021;55.882;37.654;2023-07-28T00:36:27;98017.41;;;19.50;87.30
50672;BME280;46021;55.882;37.654;2023-07-28T00:38:54;98019.03;;;19.51;88.15
50672;BME280;46021;55.882;37.654;2023-07-28T00:41:22;98014.63;;;19.51;87.30
50672;BME280;46021;55.882;37.654;2023-07-28T00:43:49;98024.34;;;19.51;87.27
50672;BME280;46021;55.882;37.654;2023-07-28T00:46:16;98029.94;;;19.47;87.02
50672;BME280;46021;55.882;37.654;2023-07-28T00:48:44;98024.94;;;19.44;87.34
50672;BME280;46021;55.882;37.654;2023-07-28T00:51:11;98018.00;;;19.43;87.13
50672;BME280;46021;55.882;37.654;2023-07-28T00:53:40;98025.06;;;19.43;87.19
50672;BME280;46021;55.882;37.654;2023-07-28T00:56:07;98009.22;;;19.43;87.62
50672;BME280;46021;55.882;37.654;2023-07-28T00:58:34;98002.28;;;19.42;86.89
50672;BME280;46021;55.882;37.654;2023-07-28T01:01:01;98012.03;;;19.41;87.50
50672;BME280;46021;55.882;37.654;2023-07-28T01:03:28;98001.59;;;19.40;86.89
50672;BME280;46021;55.882;37.654;2023-07-28T01:06:14;97993.81;;;19.38;86.98
50672;BME280;46021;55.882;37.654;2023-07-28T01:08:51;97997.41;;;19.37;86.81
50672;BME280;46021;55.882;37.654;2023-07-28T01:11:20;98000.22;;;19.36;86.92
50672;BME280;46021;55.882;37.654;2023-07-28T01:13:47;97996.03;;;19.33;86.85
50672;BME280;46021;55.882;37.654;2023-07-28T01:16:14;97998.81;;;19.32;86.78
50672;BME280;46021;55.882;37.654;2023-07-28T01:18:42;97996.63;;;19.27;86.57
50672;BME280;46021;55.882;37.654;2023-07-28T01:21:13;97997.78;;;19.24;86.90
50672;BME280;46021;55.882;37.654;2023-07-28T01:23:46;97990.94;;;19.22;87.26
50672;BME280;46021;55.882;37.654;2023-07-28T01:26:27;97992.91;;;19.20;86.48
50672;BME280;46021;55.882;37.654;2023-07-28T01:28:54;97983.34;;;19.19;86.73
50672;BME280;46021;55.882;37.654;2023-07-28T01:31:21;97985.25;;;19.17;86.88
50672;BME280;46021;55.882;37.654;2023-07-28T01:33:48;97993.34;;;19.15;86.99
50672;BME280;46021;55.882;37.654;2023-07-28T01:36:15;97980.28;;;19.14;86.84
50672;BME280;46021;55.882;37.654;2023-07-28T01:38:42;97983.06;;;19.12;87.28
50672;BME280;46021;55.882;37.654;2023-07-28T01:41:09;97977.66;;;19.14;86.87
50672;BME280;46021;55.882;37.654;2023-07-28T01:43:37;97971.69;;;19.12;86.71
50672;BME280;46021;55.882;37.654;2023-07-28T01:46:04;97978.59;;;19.13;86.72
50672;BME280;46021;55.882;37.654;2023-07-28T01:48:31;97956.50;;;19.14;87.48
50672;BME280;46021;55.882;37.654;2023-07-28T01:50:58;97958.47;;;19.12;87.04
50672;BME280;46021;55.882;37.654;2023-07-28T01:53:25;97957.78;;;19.09;87.33
50672;BME280;46021;55.882;37.654;2023-07-28T01:55:52;97961.53;;;19.07;87.45
50672;BME280;46021;55.882;37.654;2023-07-28T01:58:19;97961.69;;;19.05;87.16
50672;BME280;46021;55.882;37.654;2023-07-28T02:00:48;97966.97;;;19.05;87.12
50672;BME280;46021;55.882;37.654;2023-07-28T02:03:15;97959.75;;;19.07;87.98
50672;BME280;46021;55.882;37.654;2023-07-28T02:05:42;97963.75;;;19.12;87.30
50672;BME280;46021;55.882;37.654;2023-07-28T02:08:10;97962.47;;;19.16;87.35
50672;BME280;46021;55.882;37.654;2023-07-28T02:10:38;97950.78;;;19.18;87.58
50672;BME280;46021;55.882;37.654;2023-07-28T02:13:05;97951.31;;;19.22;87.68
50672;BME280;46021;55.882;37.654;2023-07-28T02:15:32;97965.34;;;19.22;87.96
50672;BME280;46021;55.882;37.654;2023-07-28T02:18:00;97963.56;;;19.23;87.72
50672;BME280;46021;55.882;37.654;2023-07-28T02:20:28;97961.75;;;19.23;87.80
50672;BME280;46021;55.882;37.654;2023-07-28T02:22:55;97953.00;;;19.23;87.31
50672;BME280;46021;55.882;37.654;2023-07-28T02:25:22;97956.00;;;19.28;87.72
50672;BME280;46021;55.882;37.654;2023-07-28T02:27:49;97945.16;;;19.31;87.53
50672;BME280;46021;55.882;37.654;2023-07-28T02:30:16;97954.59;;;19.34;87.42
50672;BME280;46021;55.882;37.654;2023-07-28T02:32:44;97965.72;;;19.37;88.07
50672;BME280;46021;55.882;37.654;2023-07-28T02:35:12;97964.59;;;19.40;87.99
50672;BME280;46021;55.882;37.654;2023-07-28T02:37:39;97969.03;;;19.39;87.82
50672;BME280;46021;55.882;37.654;2023-07-28T02:40:07;97965.97;;;19.44;87.42
50672;BME280;46021;55.882;37.654;2023-07-28T02:42:34;97976.97;;;19.39;87.97
50672;BME280;46021;55.882;37.654;2023-07-28T02:45:01;97974.31;;;19.39;87.37
50672;BME280;46021;55.882;37.654;2023-07-28T02:47:29;97983.09;;;19.40;87.37
50672;BME280;46021;55.882;37.654;2023-07-28T02:49:56;97976.81;;;19.41;88.04
50672;BME280;46021;55.882;37.654;2023-07-28T02:52:24;97982.50;;;19.46;88.58
50672;BME280;46021;55.882;37.654;2023-07-28T02:54:51;97998.50;;;19.44;87.66
50672;BME280;46021;55.882;37.654;2023-07-28T02:57:18;97994.91;;;19.45;87.36
50672;BME280;46021;55.882;37.654;2023-07-28T02:59:47;98003.50;;;19.47;87.08
50672;BME280;46021;55.882;37.654;2023-07-28T03:02:14;98016.41;;;19.51;87.88
50672;BME280;46021;55.882;37.654;2023-07-28T03:04:41;97993.75;;;19.48;87.39
50672;BME280;46021;55.882;37.654;2023-07-28T03:07:30;98005.16;;;19.48;87.29
50672;BME280;46021;55.882;37.654;2023-07-28T03:10:01;98006.81;;;19.50;87.71
50672;BME280;46021;55.882;37.654;2023-07-28T03:12:30;97999.59;;;19.52;87.08
50672;BME280;46021;55.882;37.654;2023-07-28T03:14:57;97972.56;;;19.58;87.70
50672;BME280;46021;55.882;37.654;2023-07-28T03:17:24;97962.91;;;19.66;87.64
50672;BME280;46021;55.882;37.654;2023-07-28T03:19:51;97985.00;;;19.75;87.70
50672;BME280;46021;55.882;37.654;2023-07-28T03:22:18;98005.88;;;19.78;87.77
50672;BME280;46021;55.882;37.654;2023-07-28T03:24:47;98029.38;;;19.81;86.63
50672;BME280;46021;55.882;37.654;2023-07-28T03:27:14;98042.28;;;19.84;87.20
50672;BME280;46021;55.882;37.654;2023-07-28T03:29:41;98054.53;;;19.85;87.22
50672;BME280;46021;55.882;37.654;2023-07-28T03:32:08;98051.75;;;19.87;87.11
50672;BME280;46021;55.882;37.654;2023-07-28T03:34:35;98037.09;;;19.93;86.87
50672;BME280;46021;55.882;37.654;2023-07-28T03:37:04;98014.66;;;19.97;86.89
50672;BME280;46021;55.882;37.654;2023-07-28T03:39:32;97995.53;;;20.03;86.86
50672;BME280;46021;55.882;37.654;2023-07-28T03:42:00;98012.88;;;20.15;86.72
50672;BME280;46021;55.882;37.654;2023-07-28T03:44:28;98027.84;;;20.24;85.91
50672;BME280;46021;55.882;37.654;2023-07-28T03:46:55;98043.41;;;20.28;86.11
50672;BME280;46021;55.882;37.654;2023-07-28T03:49:23;98070.19;;;20.24;85.35
50672;BME280;46021;55.882;37.654;2023-07-28T03:51:50;98119.38;;;20.17;85.25
50672;BME280;46021;55.882;37.654;2023-07-28T03:54:17;98130.84;;;20.08;85.57
50672;BME280;46021;55.882;37.654;2023-07-28T03:56:44;98142.97;;;20.01;85.67
50672;BME280;46021;55.882;37.654;2023-07-28T03:59:12;98187.31;;;19.89;86.12
50672;BME280;46021;55.882;37.654;2023-07-28T04:01:39;98190.13;;;19.68;85.92
50672;BME280;46021;55.882;37.654;2023-07-28T04:04:06;98239.09;;;19.53;86.98
50672;BME280;46021;55.882;37.654;2023-07-28T04:06:41;98216.31;;;19.22;88.42
50672;BME280;46021;55.882;37.654;2023-07-28T04:09:08;98171.44;;;19.03;89.60
50672;BME280;46021;55.882;37.654;2023-07-28T04:11:35;98157.94;;;18.86;90.03
50672;BME280;46021;55.882;37.654;2023-07-28T04:14:02;98156.25;;;18.76;91.02
50672;BME280;46021;55.882;37.654;2023-07-28T04:16:31;98092.91;;;18.66;92.01
50672;BME280;46021;55.882;37.654;2023-07-28T04:18:58;98020.41;;;18.60;92.69
50672;BME280;46021;55.882;37.654;2023-07-28T04:21:25;97974.84;;;18.58;92.08
50672;BME280;46021;55.882;37.654;2023-07-28T04:23:53;97963.75;;;18.55;93.20
50672;BME280;46021;55.882;37.654;2023-07-28T04:26:20;97905.97;;;18.51;93.46
50672;BME280;46021;55.882;37.654;2023-07-28T04:28:52;97903.91;;;18.45;93.67
50672;BME280;46021;55.882;37.654;2023-07-28T04:31:19;97903.53;;;18.30;95.01
50672;BME280;46021;55.882;37.654;2023-07-28T04:33:58;97886.00;;;18.29;95.61
50672;BME280;46021;55.882;37.654;2023-07-28T04:36:35;97867.16;;;18.24;95.77
50672;BME280;46021;55.882;37.654;2023-07-28T04:39:02;97857.84;;;18.20;96.24
50672;BME280;46021;55.882;37.654;2023-07-28T04:41:29;97913.97;;;18.22;96.53
50672;BME280;46021;55.882;37.654;2023-07-28T04:43:57;97921.56;;;18.25;96.03
50672;BME280;46021;55.882;37.654;2023-07-28T04:46:27;97924.34;;;18.34;96.81
50672;BME280;46021;55.882;37.654;2023-07-28T04:48:58;97919.06;;;18.34;96.82
50672;BME280;46021;55.882;37.654;2023-07-28T04:52:04;97925.16;;;18.44;96.57
50672;BME280;46021;55.882;37.654;2023-07-28T04:54:49;97928.34;;;18.47;97.16
50672;BME280;46021;55.882;37.654;2023-07-28T04:57:18;97921.53;;;18.55;97.16
50672;BME280;46021;55.882;37.654;2023-07-28T04:59:46;97932.63;;;18.58;97.53
50672;BME280;46021;55.882;37.654;2023-07-28T05:02:13;97924.41;;;18.61;97.53
50672;BME280;46021;55.882;37.654;2023-07-28T05:04:41;97919.81;;;18.63;97.46
50672;BME280;46021;55.882;37.654;2023-07-28T05:07:08;97929.97;;;18.68;97.76
50672;BME280;46021;55.882;37.654;2023-07-28T05:09:35;97932.28;;;18.81;98.39
50672;BME280;46021;55.882;37.654;2023-07-28T05:12:03;97931.84;;;18.95;98.55
50672;BME280;46021;55.882;37.654;2023-07-28T05:14:37;97938.03;;;19.14;99.27
50672;BME280;46021;55.882;37.654;2023-07-28T05:17:05;97943.94;;;19.25;99.09
50672;BME280;46021;55.882;37.654;2023-07-28T05:19:53;97946.34;;;19.46;99.25
50672;BME280;46021;55.882;37.654;2023-07-28T05:22:34;97951.81;;;19.63;99.01
50672;BME280;46021;55.882;37.654;2023-07-28T05:25:01;97959.94;;;19.79;99.14
50672;BME280;46021;55.882;37.654;2023-07-28T05:27:31;97958.06;;;19.90;98.48
50672;BME280;46021;55.882;37.654;2023-07-28T05:29:57;97967.06;;;19.97;98.20
50672;BME280;46021;55.882;37.654;2023-07-28T05:32:25;97974.78;;;20.08;97.14
50672;BME280;46021;55.882;37.654;2023-07-28T05:35:16;97974.16;;;20.14;97.18
50672;BME280;46021;55.882;37.654;2023-07-28T05:37:43;97975.66;;;20.17;96.34
50672;BME280;46021;55.882;37.654;2023-07-28T05:40:11;97981.66;;;20.19;96.17
50672;BME280;46021;55.882;37.654;2023-07-28T05:42:38;97990.41;;;20.19;96.06
50672;BME280;46021;55.882;37.654;2023-07-28T05:45:06;97984.28;;;20.37;95.24
50672;BME280;46021;55.882;37.654;2023-07-28T05:47:33;97984.88;;;20.93;99.59
50672;BME280;46021;55.882;37.654;2023-07-28T05:50:00;97997.13;;;21.54;99.61
50672;BME280;46021;55.882;37.654;2023-07-28T05:52:30;97985.22;;;22.26;100.00
50672;BME280;46021;55.882;37.654;2023-07-28T05:54:57;97991.03;;;22.70;99.29
50672;BME280;46021;55.882;37.654;2023-07-28T05:57:24;97986.84;;;22.84;95.26
50672;BME280;46021;55.882;37.654;2023-07-28T05:59:51;97975.91;;;22.87;93.96
50672;BME280;46021;55.882;37.654;2023-07-28T06:02:18;97984.03;;;22.86;92.36
50672;BME280;46021;55.882;37.654;2023-07-28T06:04:50;97969.59;;;22.80;92.37
50672;BME280;46021;55.882;37.654;2023-07-28T06:07:17;97979.88;;;22.83;91.84
50672;BME280;46021;55.882;37.654;2023-07-28T06:09:46;97988.34;;;22.78;91.87
50672;BME280;46021;55.882;37.654;2023-07-28T06:12:13;97979.72;;;22.60;90.63
50672;BME280;46021;55.882;37.654;2023-07-28T06:14:42;97982.22;;;22.45;90.95
50672;BME280;46021;55.882;37.654;2023-07-28T06:17:10;98003.63;;;22.35;90.95
50672;BME280;46021;55.882;37.654;2023-07-28T06:19:37;98008.41;;;22.24;90.71
50672;BME280;46021;55.882;37.654;2023-07-28T06:22:04;97996.78;;;22.16;91.21
50672;BME280;46021;55.882;37.654;2023-07-28T06:24:37;98001.50;;;22.31;92.92
50672;BME280;46021;55.882;37.654;2023-07-28T06:27:05;97990.84;;;22.47;92.99
50672;BME280;46021;55.882;37.654;2023-07-28T06:29:36;97982.22;;;22.62;92.83
50672;BME280;46021;55.882;37.654;2023-07-28T06:32:04;97976.75;;;22.63;91.07
50672;BME280;46021;55.882;37.654;2023-07-28T06:34:31;97981.88;;;22.81;91.90
50672;BME280;46021;55.882;37.654;2023-07-28T06:36:58;97980.81;;;22.98;90.68
50672;BME280;46021;55.882;37.654;2023-07-28T06:39:25;97985.69;;;23.03;87.43
50672;BME280;46021;55.882;37.654;2023-07-28T06:41:52;98004.41;;;23.18;87.14
50672;BME280;46021;55.882;37.654;2023-07-28T06:44:22;98021.06;;;23.12;85.94
50672;BME280;46021;55.882;37.654;2023-07-28T06:46:50;98036.31;;;22.85;84.90
50672;BME280;46021;55.882;37.654;2023-07-28T06:49:17;98089.69;;;22.25;81.79
50672;BME280;46021;55.882;37.654;2023-07-28T06:51:44;98128.13;;;22.04;83.68
50672;BME280;46021;55.882;37.654;2023-07-28T06:54:11;98151.97;;;21.70;83.63
50672;BME280;46021;55.882;37.654;2023-07-28T06:56:39;98198.41;;;21.30;83.81
50672;BME280;46021;55.882;37.654;2023-07-28T06:59:06;98263.16;;;20.91;82.58
50672;BME280;46021;55.882;37.654;2023-07-28T07:01:34;98263.06;;;20.55;82.39
50672;BME280;46021;55.882;37.654;2023-07-28T07:04:01;98268.22;;;20.19;84.39
50672;BME280;46021;55.882;37.654;2023-07-28T07:06:30;98266.25;;;19.74;86.39
50672;BME280;46021;55.882;37.654;2023-07-28T07:08:57;98185.16;;;19.45;87.10
50672;BME280;46021;55.882;37.654;2023-07-28T07:11:24;98176.00;;;19.20;88.45
50672;BME280;46021;55.882;37.654;2023-07-28T07:13:51;98160.88;;;19.03;89.31
50672;BME280;46021;55.882;37.654;2023-07-28T07:16:19;98122.22;;;18.92;89.90
50672;BME280;46021;55.882;37.654;2023-07-28T07:18:47;98070.97;;;18.75;90.32
50672;BME280;46021;55.882;37.654;2023-07-28T07:21:14;98077.91;;;18.76;90.96
50672;BME280;46021;55.882;37.654;2023-07-28T07:23:41;98080.66;;;18.75;91.05
50672;BME280;46021;55.882;37.654;2023-07-28T07:26:24;98065.16;;;18.81;92.52
50672;BME280;46021;55.882;37.654;2023-07-28T07:28:51;98076.25;;;18.85;92.73
50672;BME280;46021;55.882;37.654;2023-07-28T07:31:18;98078.19;;;18.93;93.28
50672;BME280;46021;55.882;37.654;2023-07-28T07:33:47;98075.09;;;19.07;93.46
50672;BME280;46021;55.882;37.654;2023-07-28T07:36:15;98037.53;;;19.23;94.16
50672;BME280;46021;55.882;37.654;2023-07-28T07:38:43;98023.28;;;19.43;94.36
50672;BME280;46021;55.882;37.654;2023-07-28T07:41:11;98008.59;;;19.59;94.56
50672;BME280;46021;55.882;37.654;2023-07-28T07:43:41;98029.25;;;19.73;94.04
50672;BME280;46021;55.882;37.654;2023-07-28T07:46:08;98060.09;;;19.82;93.66
50672;BME280;46021;55.882;37.654;2023-07-28T07:48:36;98071.47;;;19.93;93.03
50672;BME280;46021;55.882;37.654;2023-07-28T07:51:04;98069.16;;;20.08;94.56
50672;BME280;46021;55.882;37.654;2023-07-28T07:53:31;98067.13;;;20.19;94.88
50672;BME280;46021;55.882;37.654;2023-07-28T07:55:59;98065.38;;;20.28;93.96
50672;BME280;46021;55.882;37.654;2023-07-28T07:58:26;98066.84;;;20.40;95.15
50672;BME280;46021;55.882;37.654;2023-07-28T08:00:53;98062.16;;;20.52;94.16
50672;BME280;46021;55.882;37.654;2023-07-28T08:03:21;98061.28;;;20.61;94.00
50672;BME280;46021;55.882;37.654;2023-07-28T08:05:48;98070.66;;;20.74;94.34
50672;BME280;46021;55.882;37.654;2023-07-28T08:08:16;98073.56;;;20.89;93.68
50672;BME280;46021;55.882;37.654;2023-07-28T08:10:45;98082.84;;;21.11;94.27
50672;BME280;46021;55.882;37.654;2023-07-28T08:13:12;98075.97;;;21.26;91.34
50672;BME280;46021;55.882;37.654;2023-07-28T08:15:39;98079.19;;;21.64;93.57
50672;BME280;46021;55.882;37.654;2023-07-28T08:18:07;98082.47;;;21.92;93.70
50672;BME280;46021;55.882;37.654;2023-07-28T08:20:34;98089.31;;;22.11;91.91
50672;BME280;46021;55.882;37.654;2023-07-28T08:23:01;98095.72;;;22.43;91.96
50672;BME280;46021;55.882;37.654;2023-07-28T08:25:29;98098.78;;;22.65;90.69
50672;BME280;46021;55.882;37.654;2023-07-28T08:27:56;98095.78;;;22.84;89.64
50672;BME280;46021;55.882;37.654;2023-07-28T08:30:23;98088.16;;;23.06;89.73
50672;BME280;46021;55.882;37.654;2023-07-28T08:32:50;98095.44;;;23.28;88.51
50672;BME280;46021;55.882;37.654;2023-07-28T08:35:17;98074.44;;;23.58;89.63
50672;BME280;46021;55.882;37.654;2023-07-28T08:37:44;98096.53;;;23.59;84.96
50672;BME280;46021;55.882;37.654;2023-07-28T08:40:12;98094.00;;;23.73;85.75
50672;BME280;46021;55.882;37.654;2023-07-28T08:42:40;98113.19;;;23.52;78.96
50672;BME280;46021;55.882;37.654;2023-07-28T08:45:08;98118.28;;;23.62;83.43
50672;BME280;46021;55.882;37.654;2023-07-28T08:47:36;98126.59;;;23.67;83.16
50672;BME280;46021;55.882;37.654;2023-07-28T08:50:03;98115.94;;;23.84;82.12
50672;BME280;46021;55.882;37.654;2023-07-28T08:52:32;98122.91;;;23.85;79.06
50672;BME280;46021;55.882;37.654;2023-07-28T08:54:59;98113.31;;;24.15;79.22
50672;BME280;46021;55.882;37.654;2023-07-28T08:57:27;98120.34;;;24.39;78.54
50672;BME280;46021;55.882;37.654;2023-07-28T08:59:55;98115.69;;;24.64;77.29
50672;BME280;46021;55.882;37.654;2023-07-28T09:02:22;98111.75;;;24.60;75.80
50672;BME280;46021;55.882;37.654;2023-07-28T09:04:49;98116.00;;;24.38;75.37
50672;BME280;46021;55.882;37.654;2023-07-28T09:07:16;98117.66;;;24.08;75.78
50672;BME280;46021;55.882;37.654;2023-07-28T09:09:43;98129.69;;;23.96;77.88
50672;BME280;46021;55.882;37.654;2023-07-28T09:12:11;98134.22;;;23.95;78.29
50672;BME280;46021;55.882;37.654;2023-07-28T09:14:38;98137.44;;;24.13;77.92
50672;BME280;46021;55.882;37.654;2023-07-28T09:17:08;98139.09;;;24.54;81.11
50672;BME280;46021;55.882;37.654;2023-07-28T09:19:49;98136.03;;;24.65;73.28
50672;BME280;46021;55.882;37.654;2023-07-28T09:22:17;98132.56;;;24.57;75.77
50672;BME280;46021;55.882;37.654;2023-07-28T09:24:45;98140.06;;;24.22;73.75
50672;BME280;46021;55.882;37.654;2023-07-28T09:27:20;98135.84;;;23.96;72.17
50672;BME280;46021;55.882;37.654;2023-07-28T09:29:49;98143.41;;;23.60;73.52
50672;BME280;46021;55.882;37.654;2023-07-28T09:32:26;98143.94;;;23.30;73.83
50672;BME280;46021;55.882;37.654;2023-07-28T09:35:05;98157.53;;;22.94;71.23
50672;BME280;46021;55.882;37.654;2023-07-28T09:37:33;98172.47;;;22.71;74.47
50672;BME280;46021;55.882;37.654;2023-07-28T09:40:02;98182.25;;;22.62;76.43
50672;BME280;46021;55.882;37.654;2023-07-28T09:42:30;98200.66;;;22.55;77.36
50672;BME280;46021;55.882;37.654;2023-07-28T09:44:58;98211.88;;;22.33;76.87
50672;BME280;46021;55.882;37.654;2023-07-28T09:47:27;98222.06;;;22.19;76.91
50672;BME280;46021;55.882;37.654;2023-07-28T09:49:58;98238.84;;;21.94;76.94
50672;BME280;46021;55.882;37.654;2023-07-28T09:52:33;98234.81;;;21.82;77.48
50672;BME280;46021;55.882;37.654;2023-07-28T09:55:06;98212.41;;;21.58;76.98
50672;BME280;46021;55.882;37.654;2023-07-28T09:57:38;98214.69;;;21.53;78.65
50672;BME280;46021;55.882;37.654;2023-07-28T10:00:07;98210.00;;;21.47;79.11
50672;BME280;46021;55.882;37.654;2023-07-28T10:02:39;98196.31;;;21.51;80.02
50672;BME280;46021;55.882;37.654;2023-07-28T10:05:07;98214.34;;;21.48;80.05
50672;BME280;46021;55.882;37.654;2023-07-28T10:07:38;98211.00;;;21.46;79.90
50672;BME280;46021;55.882;37.654;2023-07-28T10:10:08;98205.38;;;21.49;80.60
50672;BME280;46021;55.882;37.654;2023-07-28T10:12:40;98186.38;;;21.53;80.62
50672;BME280;46021;55.882;37.654;2023-07-28T10:15:12;98190.22;;;21.59;80.85
50672;BME280;46021;55.882;37.654;2023-07-28T10:17:45;98205.13;;;21.60;80.82
50672;BME280;46021;55.882;37.654;2023-07-28T10:20:27;98199.63;;;21.53;79.68
50672;BME280;46021;55.882;37.654;2023-07-28T10:23:02;98199.53;;;21.63;80.43
50672;BME280;46021;55.882;37.654;2023-07-28T10:25:33;98214.13;;;21.67;80.58
50672;BME280;46021;55.882;37.654;2023-07-28T10:28:00;98224.59;;;21.69;80.10
50672;BME280;46021;55.882;37.654;2023-07-28T10:30:28;98208.47;;;21.62;79.98
50672;BME280;46021;55.882;37.654;2023-07-28T10:32:57;98188.69;;;21.56;80.44
50672;BME280;46021;55.882;37.654;2023-07-28T10:35:26;98198.78;;;21.53;80.13
50672;BME280;46021;55.882;37.654;2023-07-28T10:37:54;98190.78;;;21.45;80.49
50672;BME280;46021;55.882;37.654;2023-07-28T10:40:24;98181.06;;;21.35;80.60
50672;BME280;46021;55.882;37.654;2023-07-28T10:42:51;98181.41;;;21.32;81.19
50672;BME280;46021;55.882;37.654;2023-07-28T10:45:19;98164.63;;;21.32;81.46
50672;BME280;46021;55.882;37.654;2023-07-28T10:47:47;98126.41;;;21.34;81.82
50672;BME280;46021;55.882;37.654;2023-07-28T10:50:16;98125.78;;;21.40;82.04
50672;BME280;46021;55.882;37.654;2023-07-28T10:52:44;98156.59;;;21.41;82.41
50672;BME280;46021;55.882;37.654;2023-07-28T10:55:14;98136.06;;;21.43;82.18
50672;BME280;46021;55.882;37.654;2023-07-28T10:57:42;98141.91;;;21.47;82.64
50672;BME280;46021;55.882;37.654;2023-07-28T11:00:11;98109.50;;;21.53;82.55
50672;BME280;46021;55.882;37.654;2023-07-28T11:02:41;98111.66;;;21.58;82.57
50672;BME280;46021;55.882;37.654;2023-07-28T11:05:10;98138.16;;;21.58;82.28
50672;BME280;46021;55.882;37.654;2023-07-28T11:07:42;98142.84;;;21.64;82.56
50672;BME280;46021;55.882;37.654;2023-07-28T11:10:09;98109.41;;;21.71;82.94
50672;BME280;46021;55.882;37.654;2023-07-28T11:12:41;98116.63;;;21.87;82.42
50672;BME280;46021;55.882;37.654;2023-07-28T11:15:10;98119.00;;;21.98;82.41
50672;BME280;46021;55.882;37.654;2023-07-28T11:17:38;98104.78;;;22.16;82.29
50672;BME280;46021;55.882;37.654;2023-07-28T11:20:14;98110.19;;;22.41;81.20
50672;BME280;46021;55.882;37.654;2023-07-28T11:22:44;98100.38;;;22.49;80.29
50672;BME280;46021;55.882;37.654;2023-07-28T11:25:11;98121.63;;;22.49;79.55
50672;BME280;46021;55.882;37.654;2023-07-28T11:27:39;98155.69;;;22.54;79.51
50672;BME280;46021;55.882;37.654;2023-07-28T11:30:07;98147.81;;;22.36;78.71
50672;BME280;46021;55.882;37.654;2023-07-28T11:32:36;98138.59;;;22.14;78.47
50672;BME280;46021;55.882;37.654;2023-07-28T11:35:04;98174.97;;;21.87;78.79
50672;BME280;46021;55.882;37.654;2023-07-28T11:37:33;98203.38;;;21.69;79.06
50672;BME280;46021;55.882;37.654;2023-07-28T11:40:02;98186.38;;;21.35;78.63
50672;BME280;46021;55.882;37.654;2023-07-28T11:42:32;98224.72;;;21.23;78.61
50672;BME280;46021;55.882;37.654;2023-07-28T11:45:02;98239.31;;;21.09;79.10
50672;BME280;46021;55.882;37.654;2023-07-28T11:47:29;98221.66;;;20.82;79.14
50672;BME280;46021;55.882;37.654;2023-07-28T11:49:57;98216.97;;;20.76;78.96
50672;BME280;46021;55.882;37.654;2023-07-28T11:52:30;98194.41;;;20.72;80.18
50672;BME280;46021;55.882;37.654;2023-07-28T11:54:58;98201.91;;;20.76;80.06
50672;BME280;46021;55.882;37.654;2023-07-28T11:57:27;98201.84;;;20.86;79.65
50672;BME280;46021;55.882;37.654;2023-07-28T11:59:56;98193.13;;;20.94;79.08
50672;BME280;46021;55.882;37.654;2023-07-28T12:04:55;98197.22;;;21.24;79.27
50672;BME280;46021;55.882;37.654;2023-07-28T12:07:28;98216.72;;;21.41;77.94
50672;BME280;46021;55.882;37.654;2023-07-28T12:09:56;98229.25;;;21.49;77.35
50672;BME280;46021;55.882;37.654;2023-07-28T12:12:27;98230.53;;;21.63;77.56
50672;BME280;46021;55.882;37.654;2023-07-28T12:14:55;98238.94;;;21.84;77.66
50672;BME280;46021;55.882;37.654;2023-07-28T12:17:25;98239.47;;;22.14;76.83
50672;BME280;46021;55.882;37.654;2023-07-28T12:20:02;98249.44;;;22.20;75.04
50672;BME280;46021;55.882;37.654;2023-07-28T12:22:36;98248.41;;;22.13;74.38
50672;BME280;46021;55.882;37.654;2023-07-28T12:25:04;98251.72;;;22.15;74.59
50672;BME280;46021;55.882;37.654;2023-07-28T12:27:33;98256.84;;;22.08;74.11
50672;BME280;46021;55.882;37.654;2023-07-28T12:30:01;98266.03;;;21.96;74.32
50672;BME280;46021;55.882;37.654;2023-07-28T12:32:30;98278.16;;;21.72;74.07
50672;BME280;46021;55.882;37.654;2023-07-28T12:34:57;98274.06;;;21.60;74.21
50672;BME280;46021;55.882;37.654;2023-07-28T12:37:24;98285.59;;;21.33;75.15
50672;BME280;46021;55.882;37.654;2023-07-28T12:39:51;98295.88;;;21.18;75.02
50672;BME280;46021;55.882;37.654;2023-07-28T12:42:18;98296.78;;;21.09;74.97
50672;BME280;46021;55.882;37.654;2023-07-28T12:44:47;98303.31;;;20.87;74.19
50672;BME280;46021;55.882;37.654;2023-07-28T12:47:14;98307.91;;;20.67;74.44
50672;BME280;46021;55.882;37.654;2023-07-28T12:49:41;98309.09;;;20.35;73.04
50672;BME280;46021;55.882;37.654;2023-07-28T12:52:08;98309.41;;;20.22;73.81
50672;BME280;46021;55.882;37.654;2023-07-28T12:54:35;98326.59;;;20.08;73.47
50672;BME280;46021;55.882;37.654;2023-07-28T12:57:03;98325.38;;;19.93;74.87
50672;BME280;46021;55.882;37.654;2023-07-28T12:59:29;98327.88;;;19.84;74.55
50672;BME280;46021;55.882;37.654;2023-07-28T13:01:58;98321.31;;;19.69;74.57